x

Ilm3 - 27 Miles Se Of Wrightsville Beach, Nc (41037) Weather Station

10:00pm - Wed 17th Dec 2014 All times are EST. -5 hours from GMT.

  • Wind
    13mph, 18mph gusts
  • Sea Temp 62°f
  • Air Temp 55°f
  • Sea Pressure 1019.9mb
  • Ilm3 - 27 Miles Se Of Wrightsville Beach, Nc
  • Ilm3 - 27 Miles Se Of Wrightsville Beach, Nc

More Historic Weather Station data

Upgrade to MSW Pro to gain access to the past 30 days of data for over 8000 Wavebouys and Weather Stations around the globe.

Join Pro

Comparision Forecast

View Surf forecast
   
Wed 12/17 10:00pm 13 18 mph 1019.9mb 62f 55f
9:00pm 13 16 mph 1019.7mb 62f 55f
8:00pm 13 16 mph 1019.8mb 63f 55f
7:00pm 13 16 mph 1019.6mb 63f 55f
6:00pm 11 16 mph 1019.3mb 63f 56f
5:00pm 11 13 mph 1018.6mb 63f 55f
4:00pm 7 9 mph 1018.6mb 63f 55f
3:00pm 4 7 mph 1018.6mb 63f 54f
2:00pm 7 9 mph 1018.7mb 63f 53f
1:00pm 11 13 mph 1019.5mb 62f 52f
12:00pm 11 13 mph 1020.1mb 61f 52f
11:00am 11 13 mph 1021mb 61f 52f
10:00am 16 18 mph 1021.3mb 61f 52f
9:00am 16 20 mph 1021mb 62f 51f
8:00am 18 22 mph 1019.9mb 62f 52f
7:00am 18 20 mph 1019.1mb 62f 53f
6:00am 16 20 mph 1018.6mb 62f 53f
5:00am 18 20 mph 1017.6mb 62f 54f
4:00am 18 25 mph 1017mb 62f 54f
3:00am 18 20 mph 1016.5mb 62f 55f
2:00am 18 20 mph 1016.3mb 62f 56f
1:00am 13 18 mph 1015.7mb 61f 56f
12:00am 13 18 mph 1016.6mb 60f 56f
Tue 12/16 11:00pm 22 29 mph 1016mb 59f 57f
10:00pm 20 25 mph 1015.7mb 58f 59f
9:00pm 16 18 mph 1015.9mb 58f 58f
8:00pm 18 22 mph 1016.1mb 58f 60f
7:00pm 18 22 mph 1015.6mb 59f 63f
6:00pm 16 20 mph 1015.5mb 59f 62f
5:00pm 18 22 mph 1015.7mb 58f 62f
4:00pm 16 20 mph 1015.9mb 58f 62f
3:00pm 16 18 mph 1016.1mb 58f 61f
2:00pm 13 16 mph 1016.6mb 58f 61f
1:00pm 11 13 mph 1017.7mb 59f 60f
12:00pm 13 16 mph 1018.7mb 59f 60f
11:00am 13 16 mph 1019.6mb 60f 59f
10:00am 11 16 mph 1020.2mb 60f 58f
2:00am 9
mph
1019.9mb 63f 58f
1:00am 7 9 mph 1019.8mb 63f 58f
12:00am 4 7 mph 1020.3mb 63f 57f
Mon 12/15 11:00pm 4 7 mph 1020.6mb 63f 56f
10:00pm 7
mph
1020.7mb 63f 57f
9:00pm 2 4 mph 1020.7mb 63f 56f
8:00pm 2 4 mph 1020.9mb 63f 55f
7:00pm 7 9 mph 1020.1mb 63f 55f
6:00pm 4
mph
1020.4mb 63f 54f
5:00pm 4 7 mph 1020mb 63f 54f
4:00pm 4
mph
1019.9mb 63f 54f
3:00pm 4 7 mph 1019.5mb 63f 54f
2:00pm 4 7 mph 1019.6mb 63f 54f
1:00pm 4 7 mph 1019.7mb 63f 53f
12:00pm 2 4 mph 1020.4mb 63f 54f
11:00am 2 4 mph 1021.1mb 62f 53f
10:00am 7
mph
1021.2mb 61f 53f
9:00am 7
mph
1020.8mb 61f 51f
8:00am 9 11 mph 1020.2mb 61f 51f
7:00am 7 9 mph 1019.7mb 61f 51f
6:00am 7 9 mph 1019.3mb 61f 52f
5:00am 7 9 mph 1019mb 61f 51f
4:00am 4
mph
1018.6mb 62f 51f
3:00am 4
mph
1018.4mb 62f 52f
2:00am 2 4 mph 1018.1mb 62f 52f
1:00am 2 4 mph 1018.2mb 62f 52f
12:00am 4 7 mph 1018.2mb 62f 52f
Sun 12/14 11:00pm 4 7 mph 1018.4mb 62f 52f
10:00pm 4
mph
1018.6mb 62f 52f
9:00pm 2 4 mph 1018.3mb 62f 52f
8:00pm 2 4 mph 1017.9mb 61f 51f
7:00pm 2 4 mph 1017.7mb 61f 51f
6:00pm 7 9 mph 1017mb 60f 51f
5:00pm 7 9 mph 1016.9mb 60f 49f
4:00pm 7 9 mph 1016.8mb 61f 49f
3:00pm 4 7 mph 1016.9mb 61f 49f
2:00pm 11 13 mph 1016.9mb 62f 48f
1:00pm 9 11 mph 1017.1mb 62f 47f
12:00pm 11
mph
1017.5mb 61f 46f
11:00am 7 9 mph 1018.3mb 61f 45f
10:00am 11 13 mph 1018.4mb 61f 44f
9:00am 13 16 mph 1018mb 61f 45f
8:00am 16
mph
1017.6mb 61f 46f
7:00am 16 20 mph 1016.8mb 62f 46f
6:00am 16 18 mph 1016.8mb 62f 49f
5:00am 16 18 mph 1016.4mb 62f 50f